createdAt,value
2019-04-29T04:18:23.372Z,94.26
2019-04-29T04:19:23.314Z,93.74
2019-04-29T04:20:23.284Z,94.26
2019-04-29T04:21:23.255Z,94.26
2019-04-29T04:22:23.244Z,94.37
2019-04-29T04:37:43.424Z,94.47
2019-04-29T04:38:43.217Z,94.37
2019-04-29T04:39:43.163Z,94.37
2019-04-29T04:40:43.178Z,93.43
2019-04-29T04:41:43.184Z,93.64
2019-04-29T04:42:43.153Z,93.23
2019-04-29T04:43:43.136Z,93.54
2019-04-29T04:46:15.961Z,93.91
2019-04-29T04:50:12.669Z,93.18
2019-04-29T04:59:37.213Z,96.41
2019-04-29T05:04:46.499Z,95.57
2019-04-29T05:09:15.118Z,94.64
2019-04-29T05:10:14.898Z,94.74
2019-04-29T05:11:14.878Z,95.73
2019-04-29T05:12:14.870Z,95.63
2019-04-29T05:13:27.294Z,95.63
2019-04-29T05:14:15.852Z,95.84
2019-04-29T05:15:14.850Z,95.11
2019-04-29T05:16:14.865Z,95.21
2019-04-29T05:17:14.816Z,95.42
2019-04-29T05:18:14.798Z,95.79
2019-04-29T05:19:14.812Z,94.76
2019-04-29T05:20:14.797Z,95.28
2019-04-29T05:21:14.789Z,95.28
2019-04-29T05:22:14.796Z,95.17
2019-04-29T05:23:14.745Z,95.90
2019-04-29T05:24:14.729Z,95.79
2019-04-29T05:25:14.750Z,95.86
2019-04-29T05:26:14.742Z,95.48
2019-04-29T05:27:14.742Z,95.54
2019-04-29T05:28:14.689Z,95.65
2019-04-29T05:29:14.696Z,95.13
2019-04-29T05:30:14.679Z,94.61
2019-04-29T05:45:33.392Z,96.66
2019-04-29T05:46:32.861Z,97.65
2019-04-29T05:47:32.824Z,97.49
2019-04-29T05:48:33.263Z,97.24
2019-04-29T05:49:32.805Z,97.24
2019-04-29T05:50:32.786Z,97.09
2019-04-29T05:51:32.796Z,97.50
2019-04-29T05:52:34.730Z,97.19
2019-04-29T05:53:33.799Z,97.39
2019-04-29T05:54:33.478Z,97.19
2019-04-29T05:55:32.733Z,97.66
2019-04-29T05:56:32.719Z,97.45
2019-04-29T05:57:32.729Z,97.56
2019-04-29T05:58:37.451Z,97.35
2019-04-29T05:59:33.712Z,97.20
2019-04-29T06:20:22.905Z,93.51
2019-04-29T06:23:43.381Z,92.74
2019-04-29T06:31:20.336Z,92.29
2019-04-29T06:33:38.427Z,91.52
2019-04-29T06:34:40.174Z,92.25
2019-04-29T06:35:37.964Z,91.52
2019-04-29T06:36:37.957Z,92.25
2019-04-29T06:37:37.960Z,91.58
2019-04-29T06:38:37.976Z,91.48
2019-04-29T06:39:37.917Z,91.07
2019-04-29T06:40:37.914Z,91.17
2019-04-29T06:41:40.527Z,90.82
2019-04-29T06:42:38.942Z,90.00
2019-04-29T06:43:37.915Z,90.41
2019-04-29T06:44:37.870Z,90.20
2019-04-29T06:45:37.857Z,89.58
2019-04-29T06:46:37.843Z,89.75
2019-04-29T06:47:37.847Z,90.26
2019-04-29T06:48:37.842Z,90.16
2019-04-29T06:49:37.847Z,89.85
2019-04-29T06:50:37.823Z,89.71
2019-04-29T06:51:37.786Z,89.81
2019-04-29T06:52:37.778Z,89.91
2019-04-29T06:53:37.790Z,90.18
2019-04-29T06:54:37.751Z,89.87
2019-04-29T06:55:37.754Z,89.15
2019-04-29T06:56:37.776Z,88.08
2019-04-29T06:57:37.770Z,89.25
2019-04-29T06:58:38.433Z,88.90
2019-04-29T06:59:37.734Z,88.08
2019-04-29T07:00:37.690Z,88.24
2019-04-29T07:01:38.723Z,87.73
2019-04-29T07:02:37.673Z,86.60
2019-04-29T07:03:37.655Z,85.78
2019-04-29T07:04:39.538Z,85.26
2019-04-29T07:05:37.649Z,84.91
2019-04-29T07:06:37.665Z,85.84
2019-04-29T07:07:37.621Z,85.74
2019-04-29T07:08:37.604Z,85.63
2019-04-29T07:09:37.639Z,85.43
2019-04-29T07:10:37.615Z,84.30
2019-04-29T07:11:38.457Z,84.77
2019-04-29T07:12:37.577Z,84.26
2019-04-29T07:13:37.562Z,84.26
2019-04-29T07:14:38.630Z,84.16
2019-04-29T07:15:37.557Z,84.01
2019-04-29T07:16:37.554Z,84.22
2019-04-29T07:17:41.381Z,84.22
2019-04-29T07:18:40.296Z,83.56
2019-04-29T07:19:38.479Z,82.95
2019-04-29T07:20:38.786Z,82.23
2019-04-29T07:21:37.493Z,82.23
2019-04-29T07:22:37.503Z,82.64
2019-04-29T07:23:37.436Z,82.91
2019-04-29T07:24:37.448Z,83.22
2019-04-29T07:25:37.438Z,83.83
2019-04-29T07:26:37.404Z,82.56
2019-04-29T07:27:43.117Z,83.07
2019-04-29T07:28:38.381Z,81.13
2019-04-29T07:29:38.195Z,82.15
2019-04-29T07:30:42.970Z,81.81
2019-04-29T07:31:38.348Z,82.63
2019-04-29T07:32:37.339Z,81.91
2019-04-29T07:33:37.367Z,81.09
2019-04-29T07:34:39.541Z,80.17
2019-04-29T07:35:38.318Z,80.44
2019-04-29T07:36:37.304Z,80.23
2019-04-29T07:37:37.301Z,80.95
2019-04-29T07:38:41.551Z,79.93
2019-04-29T07:39:37.280Z,79.89
2019-04-29T07:40:38.888Z,80.40
2019-04-29T07:41:38.237Z,79.58
2019-04-29T07:42:37.227Z,79.54
2019-04-29T07:43:38.572Z,80.05
2019-04-29T07:44:44.250Z,80.16
2019-04-29T07:45:44.471Z,79.34
2019-04-29T07:46:55.683Z,78.59
2019-04-29T07:47:38.169Z,79.50
2019-04-29T07:48:41.949Z,79.41
2019-04-29T07:49:38.152Z,79.78
2019-04-29T07:50:37.145Z,79.47
2019-04-29T07:51:39.559Z,78.31
2019-04-29T07:52:37.171Z,78.61
2019-04-29T07:53:44.747Z,76.03
2019-04-29T07:54:38.107Z,76.74
2019-04-29T07:55:37.091Z,75.51
2019-04-29T07:56:37.791Z,75.89
2019-04-29T07:57:37.082Z,75.68
2019-04-29T07:58:37.053Z,77.01
2019-04-29T07:59:38.253Z,77.48
2019-04-29T08:00:37.046Z,74.11
2019-04-29T08:01:37.025Z,72.99
2019-04-29T08:02:37.037Z,74.63
2019-04-29T08:03:37.001Z,74.69
2019-04-29T08:04:36.986Z,73.88
2019-04-29T08:05:36.978Z,75.48
2019-04-29T08:06:38.324Z,75.07
2019-04-29T08:07:37.966Z,73.40
2019-04-29T08:08:36.952Z,75.03
2019-04-29T08:09:39.782Z,75.03
2019-04-29T08:10:51.491Z,72.34
2019-04-29T08:11:37.914Z,71.63
2019-04-29T08:12:36.920Z,73.84
2019-04-29T08:13:36.925Z,75.67
2019-04-29T08:14:36.877Z,73.30
2019-04-29T08:15:41.355Z,75.64
2019-04-29T08:16:37.865Z,72.34
2019-04-29T08:17:36.870Z,71.19
2019-04-29T08:18:36.839Z,70.28
2019-04-29T08:19:36.845Z,69.02
2019-04-29T08:20:39.812Z,69.13
2019-04-29T08:21:36.808Z,68.32
2019-04-29T08:22:36.815Z,66.99
2019-04-29T08:23:41.180Z,67.06
2019-04-29T08:24:37.771Z,65.94
2019-04-29T08:25:36.803Z,66.66
2019-04-29T08:26:38.256Z,66.15
2019-04-29T08:27:40.679Z,65.97
2019-04-29T08:28:36.752Z,66.35
2019-04-29T08:29:37.441Z,67.88
2019-04-29T08:30:36.720Z,64.32
2019-04-29T08:31:36.703Z,65.44
2019-04-29T08:32:38.130Z,65.03
2019-04-29T08:33:36.700Z,64.93
2019-04-29T08:34:36.687Z,66.25
2019-04-29T08:35:37.045Z,64.52
2019-04-29T08:36:36.654Z,65.30
2019-04-29T08:37:36.640Z,65.17
2019-04-29T08:38:36.635Z,65.37
2019-04-29T08:39:36.638Z,62.13
2019-04-29T08:40:36.626Z,63.82
2019-04-29T08:41:36.598Z,64.94
2019-04-29T08:42:37.284Z,62.40
2019-04-29T08:43:36.578Z,61.69
2019-04-29T08:44:36.565Z,64.20
2019-04-29T08:45:39.000Z,61.97
2019-04-29T08:46:36.554Z,63.39
2019-04-29T08:47:36.539Z,62.54
2019-04-29T08:48:36.528Z,61.74
2019-04-29T08:49:36.530Z,60.59
2019-04-29T08:50:36.505Z,59.99
2019-04-29T08:51:36.511Z,59.00
2019-04-29T08:52:36.481Z,59.74
2019-04-29T08:53:36.487Z,60.95
2019-04-29T08:54:37.182Z,62.48
2019-04-29T08:55:36.638Z,61.25
2019-04-29T08:56:36.445Z,61.05
2019-04-29T08:57:37.448Z,61.87
2019-04-29T08:58:39.170Z,60.55
2019-04-29T08:59:36.416Z,61.39
2019-04-29T09:00:36.423Z,62.10
2019-04-29T09:01:36.406Z,60.88
2019-04-29T09:02:36.414Z,61.29
2019-04-29T09:03:40.575Z,60.68
2019-04-29T09:04:36.377Z,60.60
2019-04-29T09:05:36.921Z,62.60
2019-04-29T09:06:36.331Z,61.69
2019-04-29T09:07:36.330Z,61.90
2019-04-29T09:08:36.366Z,61.29
2019-04-29T09:09:36.315Z,61.87
2019-04-29T09:10:36.719Z,60.01
2019-04-29T09:11:36.283Z,60.62
2019-04-29T09:12:36.290Z,59.70
2019-04-29T09:13:36.269Z,60.44
2019-04-29T09:14:36.255Z,60.52
2019-04-29T09:15:36.412Z,60.11
2019-04-29T09:16:36.236Z,61.33
2019-04-29T09:17:36.913Z,61.02
2019-04-29T09:18:36.632Z,61.43
2019-04-29T09:19:39.296Z,61.63
2019-04-29T09:20:36.193Z,60.42
2019-04-29T09:21:36.198Z,59.38
2019-04-29T09:22:36.213Z,59.38
2019-04-29T09:23:36.193Z,59.27
2019-04-29T09:24:36.144Z,59.48
2019-04-29T09:25:36.152Z,59.17
2019-04-29T09:26:36.131Z,59.68
2019-04-29T09:27:36.136Z,61.68
2019-04-29T09:28:36.139Z,59.17
2019-04-29T09:29:36.100Z,61.00
2019-04-29T09:30:38.637Z,60.66
2019-04-29T09:31:36.078Z,58.44
2019-04-29T09:32:38.128Z,57.73
2019-04-29T09:33:36.062Z,57.45
2019-04-29T09:34:36.057Z,57.96
2019-04-29T09:35:38.815Z,57.37
2019-04-29T09:36:36.103Z,58.67
2019-04-29T09:37:36.011Z,57.55
2019-04-29T09:38:36.798Z,58.26
2019-04-29T09:39:42.854Z,57.75
2019-04-29T09:40:36.978Z,57.86
2019-04-29T09:41:36.023Z,57.48
2019-04-29T09:42:36.044Z,57.98
2019-04-29T09:43:36.066Z,57.58
2019-04-29T09:44:40.247Z,57.28
2019-04-29T09:45:36.929Z,57.58
2019-04-29T09:46:35.904Z,57.48
2019-04-29T09:47:35.902Z,57.48
2019-04-29T09:48:35.930Z,56.36
2019-04-29T09:49:35.922Z,56.67
2019-04-29T09:50:39.196Z,57.58
2019-04-29T09:51:36.926Z,55.76
2019-04-29T09:52:35.850Z,56.97
2019-04-29T09:53:35.891Z,56.99
2019-04-29T09:54:35.824Z,57.50
2019-04-29T09:55:39.817Z,57.20
2019-04-29T09:56:36.803Z,58.31
2019-04-29T09:57:35.795Z,57.60
2019-04-29T09:58:35.773Z,58.09
2019-04-29T09:59:35.792Z,58.49
2019-04-29T10:00:36.292Z,57.96
2019-04-29T10:01:35.844Z,57.24
2019-04-29T10:02:35.753Z,57.58
2019-04-29T10:03:35.734Z,57.37
2019-04-29T10:04:35.738Z,57.88
2019-04-29T10:05:35.705Z,57.28
2019-04-29T10:06:35.700Z,57.78
2019-04-29T10:07:35.707Z,57.60
2019-04-29T10:08:35.668Z,58.80
2019-04-29T10:09:35.761Z,59.30
2019-04-29T10:10:37.360Z,58.49
2019-04-29T10:11:35.639Z,57.98
2019-04-29T10:12:35.640Z,57.28
2019-04-29T10:13:35.654Z,58.18
2019-04-29T10:14:35.614Z,57.20
2019-04-29T10:15:35.908Z,58.22
2019-04-29T10:16:36.230Z,58.01
2019-04-29T10:17:35.570Z,58.82
2019-04-29T10:18:35.567Z,58.69
2019-04-29T10:19:35.570Z,58.29
2019-04-29T10:20:35.600Z,58.29
2019-04-29T10:21:35.691Z,59.00
2019-04-29T10:22:35.537Z,59.00
2019-04-29T10:23:35.547Z,58.09
2019-04-29T10:24:35.503Z,57.58
2019-04-29T10:25:35.545Z,57.65
2019-04-29T10:26:35.473Z,57.55
2019-04-29T10:27:35.497Z,58.16
2019-04-29T10:28:35.474Z,57.75
2019-04-29T10:29:35.445Z,57.32
2019-04-29T10:30:35.440Z,57.32
2019-04-29T10:31:35.447Z,55.70
2019-04-29T10:32:37.750Z,57.53
2019-04-29T10:33:36.442Z,57.22
2019-04-29T10:34:36.243Z,56.51
2019-04-29T10:35:35.377Z,56.44
2019-04-29T10:36:35.393Z,57.24
2019-04-29T10:37:35.404Z,57.15
2019-04-29T10:38:35.353Z,57.12
2019-04-29T10:39:35.441Z,57.73
2019-04-29T10:40:35.438Z,55.70
2019-04-29T10:41:39.802Z,56.01
2019-04-29T10:42:35.332Z,56.92
2019-04-29T10:43:35.843Z,55.70
2019-04-29T10:44:37.482Z,56.95
2019-04-29T10:45:35.604Z,57.35
2019-04-29T10:46:35.271Z,57.35
2019-04-29T10:47:35.260Z,57.93
2019-04-29T10:48:35.279Z,57.73
2019-04-29T10:49:39.200Z,57.22
2019-04-29T10:50:36.264Z,57.22
2019-04-29T10:51:35.210Z,57.83
2019-04-29T10:52:38.676Z,57.42
2019-04-29T10:53:35.197Z,56.92
2019-04-29T10:54:35.207Z,56.82
2019-04-29T10:55:35.217Z,57.20
2019-04-29T10:56:35.444Z,55.60
2019-04-29T10:57:35.170Z,55.80
2019-04-29T10:58:35.772Z,57.73
2019-04-29T10:59:36.265Z,58.00
2019-04-29T11:00:35.147Z,57.20
2019-04-29T11:01:35.147Z,55.68
2019-04-29T11:02:35.184Z,55.68
2019-04-29T11:03:35.143Z,56.59
2019-04-29T11:04:36.077Z,56.69
2019-04-29T11:05:35.058Z,57.29
2019-04-29T11:06:35.861Z,55.77
2019-04-29T11:07:35.146Z,56.89
2019-04-29T11:09:50.625Z,57.50
2019-04-29T11:10:47.057Z,57.09
2019-04-29T11:11:45.908Z,57.20
2019-04-29T11:12:45.906Z,57.90
2019-04-29T11:13:50.139Z,56.79
2019-04-29T11:14:45.905Z,57.80
2019-04-29T11:15:49.534Z,57.40
2019-04-29T11:16:47.108Z,57.67
2019-04-29T11:18:08.912Z,57.67
2019-04-29T11:18:45.841Z,57.44
2019-04-29T11:19:45.884Z,57.65
2019-04-29T11:20:48.915Z,57.34
2019-04-29T11:21:46.868Z,57.44
2019-04-29T11:22:45.791Z,55.49
2019-04-29T11:23:45.806Z,55.82
2019-04-29T11:24:45.776Z,55.93
2019-04-29T11:25:51.079Z,55.62
2019-04-29T11:26:46.752Z,55.65
2019-04-29T11:27:45.754Z,56.63
2019-04-29T11:28:47.032Z,55.42
2019-04-29T11:29:45.745Z,55.42
2019-04-29T11:30:45.718Z,55.62
2019-04-29T11:31:49.099Z,55.93
2019-04-29T11:32:46.694Z,56.94
2019-04-29T11:33:45.705Z,55.73
2019-04-29T11:34:48.471Z,57.04
2019-04-29T11:35:46.660Z,55.85
2019-04-29T11:36:45.647Z,56.36
2019-04-29T11:37:45.671Z,56.05
2019-04-29T11:38:45.664Z,56.99
2019-04-29T11:39:46.139Z,56.89
2019-04-29T11:40:45.680Z,57.29
2019-04-29T11:41:45.588Z,57.20
2019-04-29T11:42:45.607Z,57.73
2019-04-29T11:43:46.726Z,57.22
2019-04-29T11:44:47.691Z,57.12
2019-04-29T11:45:45.560Z,55.90
2019-04-29T11:46:48.995Z,57.12
2019-04-29T11:47:45.532Z,55.90
2019-04-29T11:48:45.526Z,56.01
2019-04-29T11:49:47.911Z,57.09
2019-04-29T11:56:12.895Z,54.05
2019-04-29T11:57:12.493Z,54.46
2019-04-29T11:58:12.472Z,53.96
2019-04-29T11:59:12.597Z,55.57
2019-04-29T12:00:12.468Z,54.97
2019-04-29T12:01:12.513Z,55.88
2019-04-29T12:02:12.425Z,56.99
2019-04-29T12:03:14.359Z,55.77
2019-04-29T12:04:13.456Z,55.27
2019-04-29T12:05:12.405Z,55.37
2019-04-29T12:06:16.367Z,55.17
2019-04-29T12:07:13.404Z,54.74
2019-04-29T12:08:16.857Z,55.37
2019-04-29T12:09:13.384Z,54.84
2019-04-29T12:10:12.347Z,54.53
2019-04-29T12:11:12.338Z,54.94
2019-04-29T12:12:14.545Z,54.94
2019-04-29T12:13:12.341Z,54.44
2019-04-29T12:14:13.006Z,54.00
2019-04-29T12:15:13.589Z,54.82
2019-04-29T12:16:12.293Z,55.52
2019-04-29T12:17:12.289Z,55.62
2019-04-29T12:18:12.257Z,55.73
2019-04-29T12:19:12.270Z,54.69
2019-04-29T12:20:12.243Z,53.88
2019-04-29T12:21:12.446Z,54.49
2019-04-29T12:22:26.825Z,55.09
2019-04-29T12:23:15.611Z,54.58
2019-04-29T12:24:12.247Z,55.49
2019-04-29T12:25:12.221Z,55.11
2019-04-29T12:26:12.216Z,54.61
2019-04-29T12:27:14.799Z,54.82
2019-04-29T12:28:18.849Z,54.82
2019-04-29T12:29:13.628Z,55.04
2019-04-29T12:30:12.138Z,55.44
2019-04-29T12:31:12.183Z,55.44
2019-04-29T12:32:12.140Z,55.62
2019-04-29T12:33:12.087Z,55.11
2019-04-29T12:34:12.084Z,55.24
2019-04-29T12:35:12.075Z,55.32
2019-04-29T12:36:12.151Z,55.62
2019-04-29T12:37:12.042Z,55.93
2019-04-29T12:38:12.058Z,55.73
2019-04-29T12:39:12.029Z,55.42
2019-04-29T12:40:14.534Z,55.22
2019-04-29T12:41:20.674Z,54.71
2019-04-29T12:42:13.051Z,55.15
2019-04-29T12:43:16.290Z,57.27
2019-04-29T12:47:38.320Z,54.79
2019-04-29T12:48:38.930Z,54.08
2019-04-29T12:49:42.473Z,54.21
2019-04-29T12:50:42.290Z,54.61
2019-04-29T12:51:38.252Z,55.09
2019-04-29T12:52:38.446Z,55.09
2019-04-29T12:53:38.261Z,54.49
2019-04-29T13:48:25.497Z,53.30
2019-04-29T13:54:47.527Z,57.29
2019-04-29T13:55:49.114Z,56.79
2019-04-29T13:56:55.458Z,55.88
2019-04-29T13:58:58.748Z,55.95
2019-04-29T13:59:56.234Z,55.44
2019-04-29T14:02:13.220Z,55.68
2019-04-29T14:03:13.039Z,55.77
2019-04-29T14:04:13.018Z,57.09
2019-04-29T14:05:13.380Z,55.57
2019-04-29T14:07:32.386Z,55.90
2019-04-29T14:08:42.281Z,55.90
2019-04-29T14:09:35.031Z,57.12
2019-04-29T14:13:13.430Z,55.70
2019-04-29T14:55:31.945Z,66.35
2019-04-29T15:13:33.345Z,70.45
2019-04-29T15:14:30.691Z,71.36
2019-04-29T15:15:40.804Z,71.87
2019-04-29T15:21:34.049Z,71.70
2019-04-29T15:22:24.939Z,72.01
2019-04-29T15:23:28.688Z,71.50
2019-04-29T15:30:03.850Z,71.94
2019-04-29T15:31:07.986Z,72.65
2019-04-29T15:32:04.730Z,72.65
2019-04-29T15:33:04.277Z,72.45
2019-04-29T15:49:48.106Z,74.86
2019-04-29T15:50:47.680Z,75.57
2019-04-29T15:54:35.229Z,75.37
2019-04-29T16:03:23.247Z,77.27
2019-04-29T16:04:27.791Z,77.17
2019-04-29T16:05:24.253Z,77.24
2019-04-29T16:07:51.631Z,77.34
2019-04-29T16:26:37.934Z,78.39
2019-04-29T17:32:13.380Z,79.14
2019-04-29T17:49:36.330Z,80.91
2019-04-29T17:50:50.487Z,80.71
2019-04-29T17:51:36.253Z,80.00
2019-04-29T17:54:37.912Z,80.20
2019-04-29T18:01:36.604Z,80.41
2019-04-29T18:02:35.283Z,80.71
2019-04-29T18:03:34.773Z,80.41
2019-04-29T18:04:36.071Z,80.30
2019-04-29T18:05:52.189Z,80.91
2019-04-29T18:06:34.436Z,80.10
2019-04-29T18:07:35.138Z,80.61
2019-04-29T18:08:33.470Z,81.12
2019-04-29T18:09:36.514Z,81.02
2019-04-29T18:10:34.830Z,80.91
2019-04-29T18:11:33.420Z,81.12
2019-04-29T18:12:37.675Z,80.96
2019-04-29T18:13:35.326Z,80.91
2019-04-29T18:14:40.363Z,81.37
2019-04-29T18:15:42.417Z,81.26
2019-04-29T18:16:35.346Z,81.46
2019-04-29T18:17:33.574Z,80.65
2019-04-29T18:18:45.446Z,81.37
2019-04-29T18:19:34.854Z,82.08
2019-04-29T18:20:33.629Z,81.46
2019-04-29T18:21:37.237Z,81.67
2019-04-29T18:22:34.908Z,81.98
2019-04-29T18:23:33.234Z,81.67
2019-04-29T18:24:34.169Z,81.87
2019-04-29T18:25:33.237Z,81.67
2019-04-29T18:26:33.563Z,81.77
2019-04-29T18:27:35.009Z,81.98
2019-04-29T18:28:33.177Z,81.77
2019-04-29T18:29:34.805Z,81.46
2019-04-29T18:30:38.207Z,81.67
2019-04-29T18:31:33.145Z,82.08
2019-04-29T18:32:36.427Z,81.87
2019-04-29T18:33:35.117Z,82.18
2019-04-29T18:34:33.815Z,82.69
2019-04-29T18:35:35.816Z,81.77
2019-04-29T18:36:37.544Z,81.46
2019-04-29T18:46:23.463Z,82.08
2019-04-29T18:47:23.218Z,82.39
2019-04-29T18:48:26.902Z,82.49
2019-04-29T18:49:23.094Z,82.39
2019-04-29T18:50:23.942Z,82.49
2019-04-29T18:51:25.655Z,82.49
2019-04-29T18:52:28.222Z,82.89
2019-04-29T18:53:25.508Z,82.79
2019-04-29T18:55:23.966Z,82.69
2019-04-29T18:57:48.359Z,81.91
2019-04-29T19:00:12.423Z,81.30
2019-04-29T19:01:10.653Z,81.71
2019-04-29T19:02:10.660Z,81.81
2019-04-29T19:03:10.621Z,80.58
2019-04-29T19:04:16.234Z,80.69
2019-04-29T19:05:11.628Z,81.34
2019-04-29T19:06:11.286Z,80.79
2019-04-29T20:26:12.829Z,84.79
2019-04-29T20:27:01.380Z,85.20
2019-04-29T20:28:05.912Z,85.30
2019-04-29T20:29:01.401Z,84.99
2019-04-29T20:30:00.402Z,84.48
2019-04-29T20:31:15.350Z,84.17
2019-04-29T20:32:01.741Z,83.97
2019-04-29T20:33:01.047Z,84.07
2019-04-29T20:34:01.580Z,85.20
2019-04-29T20:35:06.945Z,84.48
2019-04-29T20:36:02.275Z,84.69
2019-04-29T20:37:00.392Z,84.48
2019-04-29T20:38:00.449Z,85.10
2019-04-29T20:39:00.335Z,85.40
2019-04-29T20:40:00.951Z,85.50
2019-04-29T20:41:00.439Z,85.20
2019-04-29T20:42:00.998Z,85.50
2019-04-29T20:43:00.288Z,85.50
2019-04-29T20:44:05.879Z,85.20
2019-04-29T20:45:01.107Z,85.50
2019-04-29T20:46:02.402Z,85.20
2019-04-29T20:47:16.597Z,85.50
2019-04-29T20:48:01.412Z,86.05
2019-04-29T20:49:01.080Z,86.02
2019-04-29T20:50:01.027Z,85.20
2019-04-29T20:51:10.657Z,85.85
2019-04-29T20:52:01.096Z,85.64
2019-04-29T20:53:02.243Z,86.16
2019-04-29T20:54:00.115Z,86.22
2019-04-29T20:55:02.486Z,86.22
2019-04-29T20:56:09.444Z,86.05
2019-04-29T20:57:04.946Z,86.16
2019-04-29T20:58:00.200Z,86.05
2019-04-29T20:59:02.012Z,86.05
2019-04-29T21:00:01.049Z,86.16
2019-04-29T21:01:03.117Z,85.75
2019-04-29T21:02:11.281Z,86.05
2019-04-29T21:03:04.242Z,86.05
2019-04-29T21:04:00.974Z,86.16
2019-04-29T21:05:00.059Z,85.75
2019-04-29T21:06:02.476Z,85.96
2019-04-29T21:07:02.609Z,85.96
2019-04-29T21:08:03.510Z,85.64
2019-04-29T21:09:00.889Z,85.64
2019-04-29T21:10:03.875Z,86.36
2019-04-29T21:11:00.815Z,87.18
2019-04-29T21:12:00.251Z,85.96
2019-04-29T21:12:59.887Z,86.16
2019-04-29T21:14:00.582Z,86.16
2019-04-29T21:15:00.754Z,85.96
2019-04-29T21:17:28.803Z,85.75
2019-04-29T21:18:18.961Z,86.16
2019-04-29T21:19:17.713Z,85.75
2019-04-29T21:20:17.453Z,86.26
2019-04-29T21:21:17.416Z,86.16
2019-04-29T21:22:21.924Z,86.26
2019-04-29T21:23:18.395Z,85.85
2019-04-29T21:24:18.804Z,86.05
2019-04-29T21:25:17.374Z,86.26
2019-04-29T21:26:17.387Z,85.64
2019-04-29T21:27:22.462Z,85.85
2019-04-29T21:28:18.351Z,85.99
2019-04-29T21:29:19.338Z,86.16
2019-04-29T21:30:17.338Z,85.85
2019-04-29T21:31:19.974Z,85.85
2019-04-29T21:32:17.316Z,85.44
2019-04-29T21:33:21.008Z,85.34
2019-04-29T21:34:17.595Z,85.75
2019-04-29T21:35:18.692Z,85.96
2019-04-29T21:36:18.251Z,85.03
2019-04-29T21:37:17.233Z,85.03
2019-04-29T21:38:17.855Z,85.14
2019-04-29T21:39:17.299Z,85.17
2019-04-29T21:40:18.849Z,85.14
2019-04-29T21:41:20.253Z,85.17
2019-04-29T21:42:17.307Z,85.17
2019-04-29T21:43:17.763Z,84.87
2019-04-29T21:44:17.254Z,85.24
2019-04-29T21:45:17.530Z,85.48
2019-04-29T21:46:18.045Z,85.48
2019-04-29T21:47:18.125Z,85.48
2019-04-29T21:48:17.195Z,85.03
2019-04-29T21:49:17.134Z,85.44
2019-04-29T21:50:17.167Z,85.28
2019-04-29T21:51:17.464Z,85.24
2019-04-29T21:52:19.627Z,85.34
2019-04-29T21:53:18.170Z,85.55
2019-04-29T21:54:17.126Z,85.64
2019-04-29T21:55:20.637Z,84.83
2019-04-29T21:56:18.086Z,85.17
2019-04-29T21:57:23.910Z,85.44
2019-04-29T21:58:18.139Z,85.96
2019-04-29T21:59:17.102Z,85.75
2019-04-29T22:00:24.081Z,86.10
2019-04-29T22:01:18.035Z,86.20
2019-04-29T22:02:17.526Z,86.20
2019-04-29T22:03:19.720Z,85.99
2019-04-29T22:04:18.025Z,86.10
2019-04-29T22:05:18.421Z,86.16
2019-04-29T22:06:16.929Z,85.75
2019-04-29T22:07:17.098Z,85.89
2019-04-29T22:08:20.743Z,85.89
2019-04-29T22:09:17.912Z,85.69
2019-04-29T22:10:20.065Z,86.10
2019-04-29T22:11:17.884Z,85.79
2019-04-29T22:12:20.391Z,86.10
2019-04-29T22:13:16.877Z,85.69
2019-04-29T22:14:16.867Z,86.20
2019-04-29T22:15:29.241Z,85.79
2019-04-29T22:16:17.823Z,86.20
2019-04-29T22:17:16.827Z,86.20
2019-04-29T22:18:18.120Z,86.71
2019-04-29T22:19:17.510Z,86.30
2019-04-29T22:20:16.813Z,86.61
2019-04-29T22:21:22.221Z,86.81
2019-04-29T22:22:17.798Z,87.02
2019-04-29T22:23:17.369Z,87.32
2019-04-29T22:24:16.825Z,86.81
2019-04-29T22:25:16.764Z,87.32
2019-04-29T22:26:23.055Z,87.02
2019-04-29T22:27:17.830Z,87.02
2019-04-29T22:28:19.644Z,87.12
2019-04-29T22:29:16.727Z,87.22
2019-04-29T22:30:18.552Z,87.12
2019-04-29T22:31:18.314Z,87.02
2019-04-29T22:32:19.316Z,87.02
2019-04-29T22:33:16.644Z,87.22
2019-04-29T22:34:19.125Z,87.22
2019-04-29T22:35:16.740Z,87.32
2019-04-29T22:36:18.139Z,87.22
2019-04-29T22:37:16.591Z,87.22
2019-04-29T22:38:18.774Z,87.22
2019-04-29T22:39:16.613Z,87.43
2019-04-29T22:40:17.442Z,87.43
2019-04-29T22:41:20.123Z,87.02
2019-04-29T22:42:16.598Z,86.91
2019-04-29T22:43:16.836Z,87.53
2019-04-29T22:44:21.673Z,87.43
2019-04-29T22:45:17.498Z,87.94
2019-04-29T22:46:17.487Z,87.84
2019-04-29T22:47:17.297Z,87.53
2019-04-29T22:48:19.852Z,87.94
2019-04-29T22:49:19.994Z,87.63
2019-04-29T22:50:17.503Z,87.94
2019-04-29T22:51:18.809Z,88.24
2019-04-29T22:52:16.413Z,88.24
2019-04-29T22:53:16.428Z,88.14
2019-04-29T22:54:17.636Z,87.73
2019-04-29T22:55:17.373Z,87.73
2019-04-29T22:56:16.388Z,88.04
2019-04-29T22:57:16.393Z,87.94
2019-04-29T22:58:16.334Z,87.63
2019-04-29T22:59:19.059Z,88.14
2019-04-29T23:00:16.748Z,87.94
2019-04-29T23:01:17.827Z,88.45
2019-04-29T23:02:20.030Z,88.45
2019-04-29T23:03:17.290Z,88.14
2019-04-29T23:04:17.933Z,88.24
2019-04-29T23:05:16.265Z,88.86
2019-04-29T23:06:16.309Z,88.65
2019-04-29T23:07:17.575Z,88.65
2019-04-29T23:08:17.232Z,89.06
2019-04-29T23:09:16.249Z,88.86
2019-04-29T23:10:18.133Z,88.86
2019-04-29T23:11:17.232Z,88.76
2019-04-29T23:12:18.565Z,88.96
2019-04-29T23:13:16.185Z,88.45
2019-04-29T23:14:16.211Z,89.47
2019-04-29T23:15:22.687Z,88.76
2019-04-29T23:16:17.187Z,88.86
2019-04-29T23:17:16.170Z,88.96
2019-04-29T23:18:24.480Z,88.96
2019-04-29T23:19:17.880Z,89.06
2019-04-29T23:20:16.114Z,89.06
2019-04-29T23:21:16.491Z,89.37
2019-04-29T23:22:22.036Z,89.37
2019-04-29T23:23:17.053Z,89.06
2019-04-29T23:24:17.486Z,89.06
2019-04-29T23:25:16.029Z,88.76
2019-04-29T23:26:16.890Z,88.86
2019-04-29T23:27:19.507Z,89.27
2019-04-29T23:28:16.019Z,89.78
2019-04-29T23:29:16.020Z,89.58
2019-04-29T23:30:18.158Z,89.78
2019-04-29T23:31:15.967Z,89.06
2019-04-29T23:32:16.012Z,89.68
2019-04-29T23:33:22.701Z,89.37
2019-04-29T23:34:16.942Z,89.47
2019-04-29T23:35:15.938Z,89.58
2019-04-29T23:36:16.101Z,89.58
2019-04-29T23:37:19.442Z,89.68
2019-04-29T23:38:16.896Z,89.37
2019-04-29T23:39:15.889Z,89.78
2019-04-29T23:40:15.867Z,89.27
2019-04-29T23:41:15.859Z,89.83
2019-04-29T23:42:16.395Z,89.62
2019-04-29T23:43:15.851Z,90.09
2019-04-29T23:44:15.820Z,89.72
2019-04-29T23:45:21.007Z,89.98
2019-04-29T23:46:16.795Z,90.13
2019-04-29T23:47:17.709Z,89.78
2019-04-29T23:48:19.980Z,90.03
2019-04-29T23:49:16.789Z,90.09
2019-04-29T23:50:18.747Z,90.70
2019-04-29T23:51:15.742Z,90.84
2019-04-29T23:52:17.856Z,90.84
2019-04-29T23:53:15.761Z,91.05
2019-04-29T23:54:15.722Z,90.75
2019-04-29T23:55:16.032Z,90.44
2019-04-29T23:56:15.684Z,90.84
2019-04-29T23:57:22.915Z,90.34
2019-04-29T23:59:28.166Z,91.26
